• Join FlightAware (Why Join?)
  • Login
  • US Flag 
09:05PM EDT


 

Airport Tracker/Info


-or-


 

Live Flight TrackerFlight Track Log ✈ NRL951 ✈ 11-Jul-2013 ✈ CYVO - CYMX

Flight Track Log - Related Links

Times and Time Zones

All times are in EDT time to prevent confusion due to time zone crossing. See the NRL951 flight status page for this flight to view local times or setup timezone preferences in your user account.

Time Position Orientation Groundspeed Altitude Reporting Facility
EDT Latitude Longitude Course Direction KTS MPH feet Rate Location/Type
05:49PM 47.8667 -77.3500 130° Southeast 350 403 15,000  Level Montreal Center
05:50PM 47.8113 -77.2413 135° Southeast  Level FlightAware Approximate
05:50PM 47.8000 -77.2500 135° Southeast 380 437 17,800  Level Montreal Center
05:51PM 47.7463 -77.1436 135° Southeast  Level FlightAware Approximate
05:51PM 47.7167 -77.1167 133° Southeast 370 426 20,000  Level Montreal Center
05:52PM 47.6812 -77.0462 135° Southeast  Level FlightAware Approximate
05:52PM 47.6500 -77.0167 135° Southeast 390 449 21,400  Level Montreal Center
05:53PM 47.6160 -76.9489 130° Southeast  Level FlightAware Approximate
05:53PM 47.5667 -76.8667 129° Southeast 410 472 23,500  Level Montreal Center
05:54PM 47.5564 -76.8443 130° Southeast  Level FlightAware Approximate
05:54PM 47.4833 -76.7667 141° Southeast 420 483 25,400  Level Montreal Center
05:55PM 47.4967 -76.7399 130° Southeast  Level FlightAware Approximate
05:55PM 47.4000 -76.6167 129° Southeast 430 495 26,700  Level Montreal Center
05:56PM 47.3167 -76.4833 133° Southeast 450 518 28,200 1,140 Climbing Montreal Center
05:57PM 47.2167 -76.3333 134° Southeast 470 541 29,000 360 Climbing Montreal Center
05:58PM 47.1333 -76.2167 136° Southeast 460 529 29,000  Level Montreal Center
05:59PM 47.0500 -76.0833 133° Southeast 460 529 29,000  Level Montreal Center
06:00PM 46.9500 -75.9500 138° Southeast 450 518 29,000  Level Montreal Center
06:01PM 46.8667 -75.8167 132° Southeast 450 518 29,000  Level Montreal Center
06:02PM 46.7833 -75.6667 129° Southeast 460 529 29,000  Level Montreal Center
06:03PM 46.7000 -75.5333 132° Southeast 460 529 29,000 -600 Level Montreal Center
06:04PM 46.6167 -75.4000 132° Southeast 460 529 27,800 -1,860 Descending Montreal Center
06:05PM 46.5333 -75.2667 132° Southeast 440 506 25,300 -2,760 Descending Montreal Center
06:06PM 46.4500 -75.1667 140° Southeast 430 495 22,300 -3,300 Descending Montreal Center
06:07PM 46.3500 -75.0667 145° Southeast 420 483 18,800 -3,060 Descending Montreal Center
06:08PM 46.2500 -75.0000 155° Southeast 420 483 16,200 -2,640 Descending Montreal Center
06:09PM 46.1500 -74.9000 145° Southeast 390 449 13,600 -2,100 Descending Montreal Center
06:10PM 46.0833 -74.7833 129° Southeast 370 426 12,000 -1,440 Descending Montreal Center
06:11PM 46.0333 -74.6667 122° Southeast 330 380 10,800 -1,440 Descending Montreal Center
06:12PM 45.9833 -74.5667 126° Southeast 310 357 9,200 -1,620 Descending Montreal Center
06:13PM 45.9333 -74.4667 126° Southeast 300 345 7,600 -1,500 Descending Montreal Center
06:14PM 45.9000 -74.3833 120° Southeast 280 322 6,200 -1,380 Descending Montreal Center
06:15PM 45.8833 -74.2833 103° East 270 311 4,900 -1,080 Descending Montreal Center
06:16PM 45.8833 -74.1667 90° East 260 299 4,100 -480 Descending Montreal Center
06:17PM 45.8667 -74.0667 103° East 270 311 4,000 -240 Descending Montreal Center
06:18PM 45.8667 -73.9667 90° East 260 299 3,700 -540 Descending Montreal Center
06:19PM 45.8500 -73.8667 103° East 260 299 3,000 -360 Descending Montreal Center
06:20PM 45.8167 -73.8000 126° Southeast 240 276 3,000 -120 Level Montreal Center
06:21PM 45.7833 -73.8333 215° Southwest 170 196 2,800 -540 Descending Montreal Center
06:22PM 45.7333 -73.8833 215° Southwest 170 196 2,000 -840 Descending Montreal Center
06:23PM 45.7167 -73.9333 244° Southwest 150 173 1,200 -840 Descending Montreal Center
06:24PM 45.6833 -73.9833 226° Southwest 140 161 400 -840 Descending Montreal Center